sensor_id;sensor_type;location;lat;lon;timestamp;P1;durP1;ratioP1;P2;durP2;ratioP2
30048;SDS011;16879;50.852;15.602;2023-10-19T00:00:39;13.70;;;7.05;;
30048;SDS011;16879;50.852;15.602;2023-10-19T00:03:18;8.82;;;6.13;;
30048;SDS011;16879;50.852;15.602;2023-10-19T00:05:45;10.52;;;6.78;;
30048;SDS011;16879;50.852;15.602;2023-10-19T00:08:12;15.23;;;10.00;;
30048;SDS011;16879;50.852;15.602;2023-10-19T00:10:47;16.58;;;9.82;;
30048;SDS011;16879;50.852;15.602;2023-10-19T00:13:15;13.85;;;8.45;;
30048;SDS011;16879;50.852;15.602;2023-10-19T00:15:44;15.02;;;10.02;;
30048;SDS011;16879;50.852;15.602;2023-10-19T00:18:20;37.20;;;24.02;;
30048;SDS011;16879;50.852;15.602;2023-10-19T00:20:48;31.80;;;20.75;;
30048;SDS011;16879;50.852;15.602;2023-10-19T00:23:20;24.83;;;14.23;;
30048;SDS011;16879;50.852;15.602;2023-10-19T00:26:00;19.38;;;12.43;;
30048;SDS011;16879;50.852;15.602;2023-10-19T00:28:33;31.02;;;16.67;;
30048;SDS011;16879;50.852;15.602;2023-10-19T00:31:01;24.70;;;14.43;;
30048;SDS011;16879;50.852;15.602;2023-10-19T00:33:34;15.00;;;9.30;;
30048;SDS011;16879;50.852;15.602;2023-10-19T00:36:04;11.35;;;8.23;;
30048;SDS011;16879;50.852;15.602;2023-10-19T00:38:36;10.93;;;7.47;;
30048;SDS011;16879;50.852;15.602;2023-10-19T00:41:16;13.35;;;8.20;;
30048;SDS011;16879;50.852;15.602;2023-10-19T00:43:47;27.33;;;13.57;;
30048;SDS011;16879;50.852;15.602;2023-10-19T00:46:23;11.77;;;7.97;;
30048;SDS011;16879;50.852;15.602;2023-10-19T00:48:57;12.15;;;7.20;;
30048;SDS011;16879;50.852;15.602;2023-10-19T00:51:28;9.35;;;6.82;;
30048;SDS011;16879;50.852;15.602;2023-10-19T00:54:11;10.68;;;6.30;;
30048;SDS011;16879;50.852;15.602;2023-10-19T00:56:41;9.60;;;6.47;;
30048;SDS011;16879;50.852;15.602;2023-10-19T00:59:13;11.70;;;8.07;;
30048;SDS011;16879;50.852;15.602;2023-10-19T01:01:44;11.27;;;8.00;;
30048;SDS011;16879;50.852;15.602;2023-10-19T01:04:13;16.85;;;10.10;;
30048;SDS011;16879;50.852;15.602;2023-10-19T01:06:41;19.52;;;11.18;;
30048;SDS011;16879;50.852;15.602;2023-10-19T01:09:29;13.30;;;9.50;;
30048;SDS011;16879;50.852;15.602;2023-10-19T01:12:00;24.00;;;13.43;;
30048;SDS011;16879;50.852;15.602;2023-10-19T01:14:31;23.75;;;13.25;;
30048;SDS011;16879;50.852;15.602;2023-10-19T01:16:57;18.38;;;11.02;;
30048;SDS011;16879;50.852;15.602;2023-10-19T01:19:24;20.05;;;9.13;;
30048;SDS011;16879;50.852;15.602;2023-10-19T01:21:52;12.52;;;8.13;;
30048;SDS011;16879;50.852;15.602;2023-10-19T01:24:25;17.60;;;12.10;;
30048;SDS011;16879;50.852;15.602;2023-10-19T01:27:07;13.57;;;9.90;;
30048;SDS011;16879;50.852;15.602;2023-10-19T01:29:36;10.35;;;7.80;;
30048;SDS011;16879;50.852;15.602;2023-10-19T01:32:04;9.45;;;6.35;;
30048;SDS011;16879;50.852;15.602;2023-10-19T01:34:34;12.98;;;8.25;;
30048;SDS011;16879;50.852;15.602;2023-10-19T01:37:01;10.32;;;7.20;;
30048;SDS011;16879;50.852;15.602;2023-10-19T01:39:33;10.27;;;7.90;;
30048;SDS011;16879;50.852;15.602;2023-10-19T01:42:04;11.20;;;6.75;;
30048;SDS011;16879;50.852;15.602;2023-10-19T01:44:30;8.35;;;6.07;;
30048;SDS011;16879;50.852;15.602;2023-10-19T01:46:58;7.43;;;6.10;;
30048;SDS011;16879;50.852;15.602;2023-10-19T01:49:25;13.15;;;7.20;;
30048;SDS011;16879;50.852;15.602;2023-10-19T01:51:55;9.25;;;6.10;;
30048;SDS011;16879;50.852;15.602;2023-10-19T01:54:22;7.13;;;5.78;;
30048;SDS011;16879;50.852;15.602;2023-10-19T01:56:53;8.50;;;6.30;;
30048;SDS011;16879;50.852;15.602;2023-10-19T01:59:24;6.05;;;5.28;;
30048;SDS011;16879;50.852;15.602;2023-10-19T02:01:55;8.52;;;5.43;;
30048;SDS011;16879;50.852;15.602;2023-10-19T02:04:22;6.95;;;6.18;;
30048;SDS011;16879;50.852;15.602;2023-10-19T02:06:49;9.52;;;7.22;;
30048;SDS011;16879;50.852;15.602;2023-10-19T02:09:19;12.07;;;7.28;;
30048;SDS011;16879;50.852;15.602;2023-10-19T02:11:57;9.52;;;7.15;;
30048;SDS011;16879;50.852;15.602;2023-10-19T02:14:24;6.47;;;5.50;;
30048;SDS011;16879;50.852;15.602;2023-10-19T02:16:54;10.25;;;7.25;;
30048;SDS011;16879;50.852;15.602;2023-10-19T02:19:25;8.43;;;6.10;;
30048;SDS011;16879;50.852;15.602;2023-10-19T02:21:55;6.85;;;6.07;;
30048;SDS011;16879;50.852;15.602;2023-10-19T02:24:23;8.80;;;6.88;;
30048;SDS011;16879;50.852;15.602;2023-10-19T02:26:51;7.00;;;5.55;;
30048;SDS011;16879;50.852;15.602;2023-10-19T02:29:17;8.93;;;6.22;;
30048;SDS011;16879;50.852;15.602;2023-10-19T02:31:44;8.57;;;5.72;;
30048;SDS011;16879;50.852;15.602;2023-10-19T02:34:11;8.48;;;5.75;;
30048;SDS011;16879;50.852;15.602;2023-10-19T02:36:40;10.18;;;6.20;;
30048;SDS011;16879;50.852;15.602;2023-10-19T02:39:08;11.15;;;8.05;;
30048;SDS011;16879;50.852;15.602;2023-10-19T02:41:42;13.77;;;6.93;;
30048;SDS011;16879;50.852;15.602;2023-10-19T02:44:10;10.82;;;7.65;;
30048;SDS011;16879;50.852;15.602;2023-10-19T02:46:46;8.70;;;6.20;;
30048;SDS011;16879;50.852;15.602;2023-10-19T02:49:15;8.55;;;5.88;;
30048;SDS011;16879;50.852;15.602;2023-10-19T02:51:45;8.13;;;5.95;;
30048;SDS011;16879;50.852;15.602;2023-10-19T02:54:13;15.23;;;10.05;;
30048;SDS011;16879;50.852;15.602;2023-10-19T02:56:50;11.85;;;8.38;;
30048;SDS011;16879;50.852;15.602;2023-10-19T02:59:18;9.00;;;7.97;;
30048;SDS011;16879;50.852;15.602;2023-10-19T03:01:51;10.65;;;7.13;;
30048;SDS011;16879;50.852;15.602;2023-10-19T03:04:19;15.57;;;10.65;;
30048;SDS011;16879;50.852;15.602;2023-10-19T03:06:45;10.25;;;7.38;;
30048;SDS011;16879;50.852;15.602;2023-10-19T03:09:13;9.20;;;7.32;;
30048;SDS011;16879;50.852;15.602;2023-10-19T03:11:40;9.32;;;7.28;;
30048;SDS011;16879;50.852;15.602;2023-10-19T03:14:06;8.85;;;6.97;;
30048;SDS011;16879;50.852;15.602;2023-10-19T03:16:33;10.73;;;7.90;;
30048;SDS011;16879;50.852;15.602;2023-10-19T03:19:00;11.93;;;10.23;;
30048;SDS011;16879;50.852;15.602;2023-10-19T03:21:26;15.73;;;11.60;;
30048;SDS011;16879;50.852;15.602;2023-10-19T03:23:53;11.68;;;8.30;;
30048;SDS011;16879;50.852;15.602;2023-10-19T03:26:21;12.05;;;8.43;;
30048;SDS011;16879;50.852;15.602;2023-10-19T03:29:02;11.20;;;7.57;;
30048;SDS011;16879;50.852;15.602;2023-10-19T03:31:39;8.77;;;6.60;;
30048;SDS011;16879;50.852;15.602;2023-10-19T03:34:09;12.80;;;10.10;;
30048;SDS011;16879;50.852;15.602;2023-10-19T03:36:37;23.98;;;14.95;;
30048;SDS011;16879;50.852;15.602;2023-10-19T03:39:04;23.33;;;13.55;;
30048;SDS011;16879;50.852;15.602;2023-10-19T03:41:38;14.82;;;10.20;;
30048;SDS011;16879;50.852;15.602;2023-10-19T03:44:11;14.30;;;8.85;;
30048;SDS011;16879;50.852;15.602;2023-10-19T03:46:52;14.73;;;11.48;;
30048;SDS011;16879;50.852;15.602;2023-10-19T03:49:21;17.85;;;11.25;;
30048;SDS011;16879;50.852;15.602;2023-10-19T03:51:48;14.65;;;8.55;;
30048;SDS011;16879;50.852;15.602;2023-10-19T03:54:26;16.70;;;10.23;;
30048;SDS011;16879;50.852;15.602;2023-10-19T03:56:52;20.15;;;13.05;;
30048;SDS011;16879;50.852;15.602;2023-10-19T03:59:21;21.60;;;15.07;;
30048;SDS011;16879;50.852;15.602;2023-10-19T04:01:49;20.08;;;12.90;;
30048;SDS011;16879;50.852;15.602;2023-10-19T04:04:15;15.27;;;10.65;;
30048;SDS011;16879;50.852;15.602;2023-10-19T04:06:42;14.10;;;10.00;;
30048;SDS011;16879;50.852;15.602;2023-10-19T04:09:13;15.55;;;11.52;;
30048;SDS011;16879;50.852;15.602;2023-10-19T04:11:43;14.95;;;10.52;;
30048;SDS011;16879;50.852;15.602;2023-10-19T04:14:16;16.15;;;10.77;;
30048;SDS011;16879;50.852;15.602;2023-10-19T04:16:43;11.57;;;9.02;;
30048;SDS011;16879;50.852;15.602;2023-10-19T04:19:10;13.90;;;9.20;;
30048;SDS011;16879;50.852;15.602;2023-10-19T04:21:36;11.77;;;8.02;;
30048;SDS011;16879;50.852;15.602;2023-10-19T04:24:09;15.50;;;9.30;;
30048;SDS011;16879;50.852;15.602;2023-10-19T04:26:36;14.88;;;10.18;;
30048;SDS011;16879;50.852;15.602;2023-10-19T04:29:03;13.98;;;10.48;;
30048;SDS011;16879;50.852;15.602;2023-10-19T04:31:36;13.50;;;9.57;;
30048;SDS011;16879;50.852;15.602;2023-10-19T04:34:03;16.23;;;10.60;;
30048;SDS011;16879;50.852;15.602;2023-10-19T04:36:33;16.75;;;9.85;;
30048;SDS011;16879;50.852;15.602;2023-10-19T04:38:59;14.73;;;10.10;;
30048;SDS011;16879;50.852;15.602;2023-10-19T04:41:25;12.32;;;9.30;;
30048;SDS011;16879;50.852;15.602;2023-10-19T04:43:54;11.98;;;8.63;;
30048;SDS011;16879;50.852;15.602;2023-10-19T04:46:23;10.88;;;8.25;;
30048;SDS011;16879;50.852;15.602;2023-10-19T04:48:49;14.82;;;10.32;;
30048;SDS011;16879;50.852;15.602;2023-10-19T04:51:16;11.30;;;8.50;;
30048;SDS011;16879;50.852;15.602;2023-10-19T04:53:42;10.60;;;8.38;;
30048;SDS011;16879;50.852;15.602;2023-10-19T04:56:08;12.40;;;9.18;;
30048;SDS011;16879;50.852;15.602;2023-10-19T04:58:34;15.75;;;10.88;;
30048;SDS011;16879;50.852;15.602;2023-10-19T05:01:01;17.20;;;10.43;;
30048;SDS011;16879;50.852;15.602;2023-10-19T05:03:29;13.90;;;10.30;;
30048;SDS011;16879;50.852;15.602;2023-10-19T05:05:55;13.00;;;9.18;;
30048;SDS011;16879;50.852;15.602;2023-10-19T05:08:22;14.00;;;9.75;;
30048;SDS011;16879;50.852;15.602;2023-10-19T05:10:51;13.50;;;10.55;;
30048;SDS011;16879;50.852;15.602;2023-10-19T05:13:18;22.73;;;15.38;;
30048;SDS011;16879;50.852;15.602;2023-10-19T05:15:44;20.42;;;13.85;;
30048;SDS011;16879;50.852;15.602;2023-10-19T05:18:10;20.48;;;13.18;;
30048;SDS011;16879;50.852;15.602;2023-10-19T05:20:37;18.85;;;13.05;;
30048;SDS011;16879;50.852;15.602;2023-10-19T05:23:08;25.20;;;15.57;;
30048;SDS011;16879;50.852;15.602;2023-10-19T05:25:35;19.85;;;15.38;;
30048;SDS011;16879;50.852;15.602;2023-10-19T05:28:04;16.85;;;12.43;;
30048;SDS011;16879;50.852;15.602;2023-10-19T05:30:31;20.98;;;12.50;;
30048;SDS011;16879;50.852;15.602;2023-10-19T05:32:57;18.25;;;14.30;;
30048;SDS011;16879;50.852;15.602;2023-10-19T05:35:24;19.52;;;14.88;;
30048;SDS011;16879;50.852;15.602;2023-10-19T05:37:54;21.73;;;15.75;;
30048;SDS011;16879;50.852;15.602;2023-10-19T05:40:24;22.88;;;15.10;;
30048;SDS011;16879;50.852;15.602;2023-10-19T05:42:57;35.67;;;20.73;;
30048;SDS011;16879;50.852;15.602;2023-10-19T05:45:26;51.83;;;25.83;;
30048;SDS011;16879;50.852;15.602;2023-10-19T05:47:53;53.30;;;27.85;;
30048;SDS011;16879;50.852;15.602;2023-10-19T05:50:19;54.22;;;27.35;;
30048;SDS011;16879;50.852;15.602;2023-10-19T05:52:45;47.80;;;25.25;;
30048;SDS011;16879;50.852;15.602;2023-10-19T05:55:13;43.03;;;22.75;;
30048;SDS011;16879;50.852;15.602;2023-10-19T05:57:40;43.85;;;23.58;;
30048;SDS011;16879;50.852;15.602;2023-10-19T06:00:09;34.08;;;18.55;;
30048;SDS011;16879;50.852;15.602;2023-10-19T06:02:44;27.42;;;18.27;;
30048;SDS011;16879;50.852;15.602;2023-10-19T06:05:11;24.58;;;16.92;;
30048;SDS011;16879;50.852;15.602;2023-10-19T06:07:46;24.80;;;16.98;;
30048;SDS011;16879;50.852;15.602;2023-10-19T06:10:13;24.63;;;13.90;;
30048;SDS011;16879;50.852;15.602;2023-10-19T06:12:46;23.52;;;14.40;;
30048;SDS011;16879;50.852;15.602;2023-10-19T06:15:13;22.83;;;14.88;;
30048;SDS011;16879;50.852;15.602;2023-10-19T06:17:40;23.25;;;14.98;;
30048;SDS011;16879;50.852;15.602;2023-10-19T06:20:07;21.20;;;14.70;;
30048;SDS011;16879;50.852;15.602;2023-10-19T06:22:35;22.27;;;14.55;;
30048;SDS011;16879;50.852;15.602;2023-10-19T06:25:01;29.02;;;19.40;;
30048;SDS011;16879;50.852;15.602;2023-10-19T06:27:30;33.28;;;25.17;;
30048;SDS011;16879;50.852;15.602;2023-10-19T06:29:56;47.58;;;37.30;;
30048;SDS011;16879;50.852;15.602;2023-10-19T06:32:22;36.60;;;27.65;;
30048;SDS011;16879;50.852;15.602;2023-10-19T06:34:48;30.15;;;22.40;;
30048;SDS011;16879;50.852;15.602;2023-10-19T06:37:15;27.13;;;20.30;;
30048;SDS011;16879;50.852;15.602;2023-10-19T06:39:41;21.85;;;17.25;;
30048;SDS011;16879;50.852;15.602;2023-10-19T06:42:08;19.45;;;16.08;;
30048;SDS011;16879;50.852;15.602;2023-10-19T06:44:40;20.95;;;16.67;;
30048;SDS011;16879;50.852;15.602;2023-10-19T06:47:09;14.93;;;13.27;;
30048;SDS011;16879;50.852;15.602;2023-10-19T06:49:36;16.35;;;12.82;;
30048;SDS011;16879;50.852;15.602;2023-10-19T06:52:03;18.25;;;13.88;;
30048;SDS011;16879;50.852;15.602;2023-10-19T06:54:32;17.17;;;15.05;;
30048;SDS011;16879;50.852;15.602;2023-10-19T06:56:58;15.20;;;13.40;;
30048;SDS011;16879;50.852;15.602;2023-10-19T06:59:27;18.00;;;14.05;;
30048;SDS011;16879;50.852;15.602;2023-10-19T07:01:54;21.20;;;18.17;;
30048;SDS011;16879;50.852;15.602;2023-10-19T07:04:20;19.70;;;15.90;;
30048;SDS011;16879;50.852;15.602;2023-10-19T07:06:46;21.20;;;16.42;;
30048;SDS011;16879;50.852;15.602;2023-10-19T07:09:13;19.13;;;14.25;;
30048;SDS011;16879;50.852;15.602;2023-10-19T07:11:40;18.77;;;15.27;;
30048;SDS011;16879;50.852;15.602;2023-10-19T07:14:10;17.67;;;14.35;;
30048;SDS011;16879;50.852;15.602;2023-10-19T07:16:39;21.30;;;15.02;;
30048;SDS011;16879;50.852;15.602;2023-10-19T07:19:06;31.58;;;19.63;;
30048;SDS011;16879;50.852;15.602;2023-10-19T07:21:34;23.70;;;19.25;;
30048;SDS011;16879;50.852;15.602;2023-10-19T07:24:03;24.35;;;18.23;;
30048;SDS011;16879;50.852;15.602;2023-10-19T07:29:38;17.85;;;13.65;;
30048;SDS011;16879;50.852;15.602;2023-10-19T07:32:08;30.75;;;21.65;;
30048;SDS011;16879;50.852;15.602;2023-10-19T07:34:38;41.25;;;23.52;;
30048;SDS011;16879;50.852;15.602;2023-10-19T07:37:04;26.45;;;18.88;;
30048;SDS011;16879;50.852;15.602;2023-10-19T07:39:32;35.78;;;24.38;;
30048;SDS011;16879;50.852;15.602;2023-10-19T07:42:00;33.63;;;23.52;;
30048;SDS011;16879;50.852;15.602;2023-10-19T07:44:32;31.60;;;22.55;;
30048;SDS011;16879;50.852;15.602;2023-10-19T07:46:58;33.85;;;21.40;;
30048;SDS011;16879;50.852;15.602;2023-10-19T07:49:24;30.30;;;20.08;;
30048;SDS011;16879;50.852;15.602;2023-10-19T07:51:50;26.42;;;19.10;;
30048;SDS011;16879;50.852;15.602;2023-10-19T07:54:16;18.33;;;15.88;;
30048;SDS011;16879;50.852;15.602;2023-10-19T07:56:43;19.55;;;16.45;;
30048;SDS011;16879;50.852;15.602;2023-10-19T07:59:09;31.30;;;23.73;;
30048;SDS011;16879;50.852;15.602;2023-10-19T08:01:37;28.08;;;21.55;;
30048;SDS011;16879;50.852;15.602;2023-10-19T08:04:03;28.75;;;21.67;;
30048;SDS011;16879;50.852;15.602;2023-10-19T08:06:30;37.25;;;26.25;;
30048;SDS011;16879;50.852;15.602;2023-10-19T08:08:57;36.15;;;27.38;;
30048;SDS011;16879;50.852;15.602;2023-10-19T08:11:23;38.05;;;25.65;;
30048;SDS011;16879;50.852;15.602;2023-10-19T08:13:49;30.92;;;23.15;;
30048;SDS011;16879;50.852;15.602;2023-10-19T08:16:15;30.35;;;20.35;;
30048;SDS011;16879;50.852;15.602;2023-10-19T08:18:42;28.58;;;21.20;;
30048;SDS011;16879;50.852;15.602;2023-10-19T08:21:08;34.25;;;25.00;;
30048;SDS011;16879;50.852;15.602;2023-10-19T08:23:35;29.50;;;22.65;;
30048;SDS011;16879;50.852;15.602;2023-10-19T08:26:02;30.92;;;23.63;;
30048;SDS011;16879;50.852;15.602;2023-10-19T08:28:30;25.85;;;19.80;;
30048;SDS011;16879;50.852;15.602;2023-10-19T08:30:57;35.90;;;26.35;;
30048;SDS011;16879;50.852;15.602;2023-10-19T08:33:27;35.13;;;25.42;;
30048;SDS011;16879;50.852;15.602;2023-10-19T08:35:55;36.83;;;28.17;;
30048;SDS011;16879;50.852;15.602;2023-10-19T08:38:27;31.38;;;24.95;;
30048;SDS011;16879;50.852;15.602;2023-10-19T08:40:53;39.47;;;29.27;;
30048;SDS011;16879;50.852;15.602;2023-10-19T08:43:20;53.75;;;37.97;;
30048;SDS011;16879;50.852;15.602;2023-10-19T08:45:46;42.88;;;32.15;;
30048;SDS011;16879;50.852;15.602;2023-10-19T08:48:20;48.35;;;35.47;;
30048;SDS011;16879;50.852;15.602;2023-10-19T08:50:47;40.10;;;31.65;;
30048;SDS011;16879;50.852;15.602;2023-10-19T08:53:14;40.42;;;32.42;;
30048;SDS011;16879;50.852;15.602;2023-10-19T08:55:44;37.53;;;29.65;;
30048;SDS011;16879;50.852;15.602;2023-10-19T08:58:10;36.25;;;26.95;;
30048;SDS011;16879;50.852;15.602;2023-10-19T09:00:43;32.65;;;26.90;;
30048;SDS011;16879;50.852;15.602;2023-10-19T09:03:12;35.42;;;27.48;;
30048;SDS011;16879;50.852;15.602;2023-10-19T09:05:39;39.17;;;28.10;;
30048;SDS011;16879;50.852;15.602;2023-10-19T09:08:05;34.50;;;25.92;;
30048;SDS011;16879;50.852;15.602;2023-10-19T09:10:32;30.50;;;22.50;;
30048;SDS011;16879;50.852;15.602;2023-10-19T09:13:05;28.50;;;22.60;;
30048;SDS011;16879;50.852;15.602;2023-10-19T09:15:35;30.88;;;22.90;;
30048;SDS011;16879;50.852;15.602;2023-10-19T09:18:17;30.17;;;22.58;;
30048;SDS011;16879;50.852;15.602;2023-10-19T09:20:45;29.30;;;23.70;;
30048;SDS011;16879;50.852;15.602;2023-10-19T09:23:22;31.17;;;24.73;;
30048;SDS011;16879;50.852;15.602;2023-10-19T09:25:49;27.98;;;24.33;;
30048;SDS011;16879;50.852;15.602;2023-10-19T09:28:18;35.83;;;28.13;;
30048;SDS011;16879;50.852;15.602;2023-10-19T09:30:44;31.52;;;25.25;;
30048;SDS011;16879;50.852;15.602;2023-10-19T09:33:16;33.90;;;25.77;;
30048;SDS011;16879;50.852;15.602;2023-10-19T09:35:49;35.03;;;29.15;;
30048;SDS011;16879;50.852;15.602;2023-10-19T09:38:21;33.17;;;27.67;;
30048;SDS011;16879;50.852;15.602;2023-10-19T09:40:48;29.05;;;24.30;;
30048;SDS011;16879;50.852;15.602;2023-10-19T09:43:16;30.77;;;24.73;;
30048;SDS011;16879;50.852;15.602;2023-10-19T09:45:56;23.60;;;20.15;;
30048;SDS011;16879;50.852;15.602;2023-10-19T09:48:25;28.35;;;22.67;;
30048;SDS011;16879;50.852;15.602;2023-10-19T09:50:55;23.30;;;19.30;;
30048;SDS011;16879;50.852;15.602;2023-10-19T09:53:26;35.72;;;25.13;;
30048;SDS011;16879;50.852;15.602;2023-10-19T09:55:54;27.48;;;22.80;;
30048;SDS011;16879;50.852;15.602;2023-10-19T09:58:24;31.00;;;24.88;;
30048;SDS011;16879;50.852;15.602;2023-10-19T10:00:51;49.03;;;37.97;;
30048;SDS011;16879;50.852;15.602;2023-10-19T10:06:02;43.60;;;32.05;;
30048;SDS011;16879;50.852;15.602;2023-10-19T10:08:31;41.97;;;30.30;;
30048;SDS011;16879;50.852;15.602;2023-10-19T10:10:58;37.08;;;30.75;;
30048;SDS011;16879;50.852;15.602;2023-10-19T10:15:56;32.17;;;24.60;;
30048;SDS011;16879;50.852;15.602;2023-10-19T10:18:26;35.25;;;26.25;;
30048;SDS011;16879;50.852;15.602;2023-10-19T10:23:41;32.45;;;22.60;;
30048;SDS011;16879;50.852;15.602;2023-10-19T10:26:08;56.53;;;33.97;;
30048;SDS011;16879;50.852;15.602;2023-10-19T10:28:34;33.05;;;25.60;;
30048;SDS011;16879;50.852;15.602;2023-10-19T10:31:10;25.23;;;19.73;;
30048;SDS011;16879;50.852;15.602;2023-10-19T10:36:13;20.27;;;15.27;;
30048;SDS011;16879;50.852;15.602;2023-10-19T10:38:40;16.95;;;13.95;;
30048;SDS011;16879;50.852;15.602;2023-10-19T10:41:06;15.68;;;13.93;;
30048;SDS011;16879;50.852;15.602;2023-10-19T10:43:52;22.45;;;15.85;;
30048;SDS011;16879;50.852;15.602;2023-10-19T10:46:24;18.05;;;16.10;;
30048;SDS011;16879;50.852;15.602;2023-10-19T10:48:50;20.23;;;15.52;;
30048;SDS011;16879;50.852;15.602;2023-10-19T10:51:23;16.33;;;14.55;;
30048;SDS011;16879;50.852;15.602;2023-10-19T10:53:51;17.92;;;15.00;;
30048;SDS011;16879;50.852;15.602;2023-10-19T10:56:18;28.63;;;22.73;;
30048;SDS011;16879;50.852;15.602;2023-10-19T10:58:46;31.83;;;23.52;;
30048;SDS011;16879;50.852;15.602;2023-10-19T11:01:13;25.73;;;21.50;;
30048;SDS011;16879;50.852;15.602;2023-10-19T11:03:40;23.60;;;20.30;;
30048;SDS011;16879;50.852;15.602;2023-10-19T11:06:08;24.92;;;19.90;;
30048;SDS011;16879;50.852;15.602;2023-10-19T11:08:35;27.35;;;21.77;;
30048;SDS011;16879;50.852;15.602;2023-10-19T11:11:07;23.38;;;17.02;;
30048;SDS011;16879;50.852;15.602;2023-10-19T11:13:37;28.77;;;22.25;;
30048;SDS011;16879;50.852;15.602;2023-10-19T11:16:04;25.33;;;22.58;;
30048;SDS011;16879;50.852;15.602;2023-10-19T11:21:06;27.42;;;21.92;;
30048;SDS011;16879;50.852;15.602;2023-10-19T11:26:08;27.60;;;23.40;;
30048;SDS011;16879;50.852;15.602;2023-10-19T11:28:36;26.65;;;22.55;;
30048;SDS011;16879;50.852;15.602;2023-10-19T11:33:42;25.95;;;22.77;;
30048;SDS011;16879;50.852;15.602;2023-10-19T11:36:09;26.80;;;23.25;;
30048;SDS011;16879;50.852;15.602;2023-10-19T11:38:38;27.60;;;22.75;;
30048;SDS011;16879;50.852;15.602;2023-10-19T11:41:08;33.08;;;28.00;;
30048;SDS011;16879;50.852;15.602;2023-10-19T11:43:35;38.97;;;31.40;;
30048;SDS011;16879;50.852;15.602;2023-10-19T11:46:01;39.30;;;32.45;;
30048;SDS011;16879;50.852;15.602;2023-10-19T11:48:31;30.15;;;24.65;;
30048;SDS011;16879;50.852;15.602;2023-10-19T11:50:58;28.58;;;23.05;;
30048;SDS011;16879;50.852;15.602;2023-10-19T11:53:24;27.70;;;22.73;;
30048;SDS011;16879;50.852;15.602;2023-10-19T11:55:50;30.58;;;25.30;;
30048;SDS011;16879;50.852;15.602;2023-10-19T11:58:16;31.30;;;26.27;;
30048;SDS011;16879;50.852;15.602;2023-10-19T12:00:42;26.25;;;23.40;;
30048;SDS011;16879;50.852;15.602;2023-10-19T12:03:12;27.25;;;22.75;;
30048;SDS011;16879;50.852;15.602;2023-10-19T12:05:40;27.30;;;23.27;;
30048;SDS011;16879;50.852;15.602;2023-10-19T12:08:07;28.70;;;23.23;;
30048;SDS011;16879;50.852;15.602;2023-10-19T12:10:33;27.98;;;22.70;;
30048;SDS011;16879;50.852;15.602;2023-10-19T12:13:06;28.83;;;22.85;;
30048;SDS011;16879;50.852;15.602;2023-10-19T12:15:33;27.38;;;21.40;;
30048;SDS011;16879;50.852;15.602;2023-10-19T12:17:59;28.50;;;23.45;;
30048;SDS011;16879;50.852;15.602;2023-10-19T12:20:27;32.05;;;27.10;;
30048;SDS011;16879;50.852;15.602;2023-10-19T12:22:56;35.15;;;29.08;;
30048;SDS011;16879;50.852;15.602;2023-10-19T12:25:24;25.92;;;23.15;;
30048;SDS011;16879;50.852;15.602;2023-10-19T12:27:57;26.90;;;22.98;;
30048;SDS011;16879;50.852;15.602;2023-10-19T12:30:23;24.98;;;19.88;;
30048;SDS011;16879;50.852;15.602;2023-10-19T12:32:52;25.45;;;22.58;;
30048;SDS011;16879;50.852;15.602;2023-10-19T12:35:18;24.98;;;21.13;;
30048;SDS011;16879;50.852;15.602;2023-10-19T12:37:55;31.27;;;25.25;;
30048;SDS011;16879;50.852;15.602;2023-10-19T12:40:21;28.30;;;23.75;;
30048;SDS011;16879;50.852;15.602;2023-10-19T12:43:00;27.25;;;21.83;;
30048;SDS011;16879;50.852;15.602;2023-10-19T12:45:28;26.98;;;21.83;;
30048;SDS011;16879;50.852;15.602;2023-10-19T12:47:54;23.15;;;20.48;;
30048;SDS011;16879;50.852;15.602;2023-10-19T12:50:21;25.13;;;21.40;;
30048;SDS011;16879;50.852;15.602;2023-10-19T12:52:51;24.33;;;21.02;;
30048;SDS011;16879;50.852;15.602;2023-10-19T12:55:18;27.13;;;23.60;;
30048;SDS011;16879;50.852;15.602;2023-10-19T12:57:44;29.15;;;24.75;;
30048;SDS011;16879;50.852;15.602;2023-10-19T13:00:11;29.20;;;25.02;;
30048;SDS011;16879;50.852;15.602;2023-10-19T13:02:50;26.10;;;22.70;;
30048;SDS011;16879;50.852;15.602;2023-10-19T13:05:17;23.20;;;20.58;;
30048;SDS011;16879;50.852;15.602;2023-10-19T13:07:46;24.92;;;18.88;;
30048;SDS011;16879;50.852;15.602;2023-10-19T13:10:12;22.27;;;19.73;;
30048;SDS011;16879;50.852;15.602;2023-10-19T13:12:38;25.10;;;21.95;;
30048;SDS011;16879;50.852;15.602;2023-10-19T13:15:05;26.95;;;23.65;;
30048;SDS011;16879;50.852;15.602;2023-10-19T13:17:39;43.88;;;33.78;;
30048;SDS011;16879;50.852;15.602;2023-10-19T13:20:07;29.85;;;24.67;;
30048;SDS011;16879;50.852;15.602;2023-10-19T13:22:41;31.00;;;25.45;;
30048;SDS011;16879;50.852;15.602;2023-10-19T13:25:08;42.28;;;30.27;;
30048;SDS011;16879;50.852;15.602;2023-10-19T13:27:44;33.53;;;27.15;;
30048;SDS011;16879;50.852;15.602;2023-10-19T13:30:11;30.58;;;24.77;;
30048;SDS011;16879;50.852;15.602;2023-10-19T13:32:37;32.42;;;26.80;;
30048;SDS011;16879;50.852;15.602;2023-10-19T13:35:04;32.97;;;28.95;;
30048;SDS011;16879;50.852;15.602;2023-10-19T13:37:30;32.00;;;26.55;;
30048;SDS011;16879;50.852;15.602;2023-10-19T13:39:57;29.30;;;24.60;;
30048;SDS011;16879;50.852;15.602;2023-10-19T13:42:24;29.45;;;24.17;;
30048;SDS011;16879;50.852;15.602;2023-10-19T13:44:50;29.70;;;25.25;;
30048;SDS011;16879;50.852;15.602;2023-10-19T13:47:16;28.55;;;25.08;;
30048;SDS011;16879;50.852;15.602;2023-10-19T13:49:42;33.92;;;25.05;;
30048;SDS011;16879;50.852;15.602;2023-10-19T13:52:08;34.15;;;30.42;;
30048;SDS011;16879;50.852;15.602;2023-10-19T13:54:34;30.67;;;23.70;;
30048;SDS011;16879;50.852;15.602;2023-10-19T13:57:02;35.03;;;28.48;;
30048;SDS011;16879;50.852;15.602;2023-10-19T13:59:29;28.45;;;24.35;;
30048;SDS011;16879;50.852;15.602;2023-10-19T14:01:55;28.02;;;24.90;;
30048;SDS011;16879;50.852;15.602;2023-10-19T14:04:21;24.90;;;21.55;;
30048;SDS011;16879;50.852;15.602;2023-10-19T14:06:48;26.45;;;21.25;;
30048;SDS011;16879;50.852;15.602;2023-10-19T14:09:15;25.70;;;22.27;;
30048;SDS011;16879;50.852;15.602;2023-10-19T14:11:43;28.48;;;23.45;;
30048;SDS011;16879;50.852;15.602;2023-10-19T14:14:12;26.55;;;23.50;;
30048;SDS011;16879;50.852;15.602;2023-10-19T14:16:38;21.77;;;19.42;;
30048;SDS011;16879;50.852;15.602;2023-10-19T14:19:04;23.95;;;21.05;;
30048;SDS011;16879;50.852;15.602;2023-10-19T14:21:30;22.90;;;20.45;;
30048;SDS011;16879;50.852;15.602;2023-10-19T14:24:02;22.17;;;19.10;;
30048;SDS011;16879;50.852;15.602;2023-10-19T14:26:29;24.83;;;22.23;;
30048;SDS011;16879;50.852;15.602;2023-10-19T14:28:56;26.85;;;24.02;;
30048;SDS011;16879;50.852;15.602;2023-10-19T14:31:22;30.52;;;24.48;;
30048;SDS011;16879;50.852;15.602;2023-10-19T14:33:48;24.38;;;19.73;;
30048;SDS011;16879;50.852;15.602;2023-10-19T14:36:14;26.23;;;21.48;;
30048;SDS011;16879;50.852;15.602;2023-10-19T14:38:40;25.00;;;22.38;;
30048;SDS011;16879;50.852;15.602;2023-10-19T14:41:08;27.27;;;23.52;;
30048;SDS011;16879;50.852;15.602;2023-10-19T14:43:34;25.25;;;22.15;;